createdAt,value
2023-05-19T00:00:54.860Z,64.71
2023-05-19T00:03:21.865Z,64.59
2023-05-19T00:05:49.130Z,64.87
2023-05-19T00:08:19.416Z,64.86
2023-05-19T00:10:46.958Z,64.96
2023-05-19T00:13:13.519Z,64.96
2023-05-19T00:15:40.267Z,65.04
2023-05-19T00:18:08.987Z,65.03
2023-05-19T00:20:35.510Z,65.12
2023-05-19T00:23:01.979Z,65.01
2023-05-19T00:25:28.419Z,65.30
2023-05-19T00:27:54.821Z,65.18
2023-05-19T00:30:22.866Z,65.42
2023-05-19T00:32:49.455Z,65.46
2023-05-19T00:35:16.393Z,65.48
2023-05-19T00:37:42.762Z,65.54
2023-05-19T00:40:10.694Z,65.63
2023-05-19T00:42:37.294Z,65.78
2023-05-19T00:45:04.071Z,65.78
2023-05-19T00:47:30.959Z,65.75
2023-05-19T00:49:57.422Z,66.04
2023-05-19T00:52:23.820Z,65.92
2023-05-19T00:54:51.809Z,65.83
2023-05-19T00:57:18.941Z,66.18
2023-05-19T00:59:45.537Z,66.02
2023-05-19T01:02:11.999Z,66.18
2023-05-19T01:04:41.709Z,66.29
2023-05-19T01:07:08.217Z,66.58
2023-05-19T01:09:34.746Z,66.54
2023-05-19T01:12:01.567Z,66.50
2023-05-19T01:14:28.867Z,66.60
2023-05-19T01:17:14.249Z,66.59
2023-05-19T01:20:13.687Z,66.54
2023-05-19T01:23:01.353Z,66.94
2023-05-19T01:25:30.756Z,67.16
2023-05-19T01:28:12.333Z,67.12
2023-05-19T01:30:38.636Z,67.12
2023-05-19T01:33:08.702Z,67.45
2023-05-19T01:35:37.986Z,67.56
2023-05-19T01:38:07.769Z,67.36
2023-05-19T01:40:36.068Z,67.56
2023-05-19T01:43:03.683Z,67.43
2023-05-19T01:45:31.971Z,67.51
2023-05-19T01:48:01.240Z,67.30
2023-05-19T01:50:28.545Z,67.31
2023-05-19T01:52:55.589Z,67.96
2023-05-19T01:55:23.660Z,67.78
2023-05-19T01:58:27.847Z,67.74
2023-05-19T02:01:03.903Z,67.99
2023-05-19T02:03:47.796Z,68.24
2023-05-19T02:06:31.056Z,68.47
2023-05-19T02:09:12.083Z,68.34
2023-05-19T02:12:03.944Z,68.27
2023-05-19T02:14:35.332Z,68.51
2023-05-19T02:17:04.748Z,68.18
2023-05-19T02:19:33.461Z,68.21
2023-05-19T02:21:59.991Z,68.52
2023-05-19T02:24:26.459Z,69.09
2023-05-19T02:26:54.000Z,68.82
2023-05-19T02:29:21.131Z,68.93
2023-05-19T02:31:47.801Z,68.93
2023-05-19T02:34:14.636Z,69.08
2023-05-19T02:36:45.365Z,69.45
2023-05-19T02:39:12.512Z,69.46
2023-05-19T02:41:39.278Z,69.64
2023-05-19T02:44:05.790Z,69.88
2023-05-19T02:46:32.330Z,70.46
2023-05-19T02:48:59.200Z,70.58
2023-05-19T02:51:25.625Z,70.61
2023-05-19T02:53:52.056Z,70.44
2023-05-19T02:56:18.421Z,70.19
2023-05-19T02:58:44.776Z,70.01
2023-05-19T03:01:11.283Z,69.94
2023-05-19T03:03:37.819Z,70.13
2023-05-19T03:06:04.984Z,69.91
2023-05-19T03:08:31.490Z,70.01
2023-05-19T03:10:57.859Z,70.14
2023-05-19T03:13:24.341Z,70.09
2023-05-19T03:15:51.177Z,70.08
2023-05-19T03:18:17.802Z,70.07
2023-05-19T03:20:44.587Z,70.01
2023-05-19T03:23:11.074Z,70.26
2023-05-19T03:25:37.545Z,70.45
2023-05-19T03:28:04.107Z,70.34
2023-05-19T03:30:30.797Z,70.44
2023-05-19T03:32:57.395Z,70.38
2023-05-19T03:35:23.859Z,70.17
2023-05-19T03:37:50.411Z,70.15
2023-05-19T03:40:18.743Z,70.61
2023-05-19T03:42:45.232Z,70.63
2023-05-19T03:45:11.716Z,70.78
2023-05-19T03:47:38.174Z,70.74
2023-05-19T03:50:04.956Z,71.04
2023-05-19T03:52:31.413Z,71.05
2023-05-19T03:54:57.777Z,71.19
2023-05-19T03:57:24.282Z,70.97
2023-05-19T03:59:50.804Z,70.65
2023-05-19T04:02:17.264Z,70.66
2023-05-19T04:04:43.723Z,70.75
2023-05-19T04:07:10.097Z,70.45
2023-05-19T04:09:37.560Z,70.69
2023-05-19T04:12:04.327Z,71.49
2023-05-19T04:14:30.741Z,71.14
2023-05-19T04:16:57.303Z,70.93
2023-05-19T04:19:23.864Z,70.99
2023-05-19T04:21:50.366Z,70.67
2023-05-19T04:24:16.829Z,70.93
2023-05-19T04:26:46.028Z,71.00
2023-05-19T04:29:13.885Z,71.39
2023-05-19T04:31:41.158Z,71.81
2023-05-19T04:34:10.382Z,71.82
2023-05-19T04:36:37.736Z,71.93
2023-05-19T04:39:07.633Z,71.77
2023-05-19T04:41:34.895Z,71.65
2023-05-19T04:44:01.326Z,71.59
2023-05-19T04:46:29.947Z,71.81
2023-05-19T04:48:57.206Z,71.95
2023-05-19T04:51:30.288Z,72.50
2023-05-19T04:53:57.783Z,72.96
2023-05-19T04:56:24.212Z,73.00
2023-05-19T04:58:50.792Z,73.37
2023-05-19T05:01:17.201Z,73.31
2023-05-19T05:03:44.315Z,73.04
2023-05-19T05:06:11.648Z,73.34
2023-05-19T05:08:40.356Z,73.11
2023-05-19T05:11:07.098Z,73.31
2023-05-19T05:13:33.987Z,73.54
2023-05-19T05:16:00.740Z,73.79
2023-05-19T05:18:27.433Z,73.98
2023-05-19T05:20:54.448Z,73.79
2023-05-19T05:23:21.220Z,73.85
2023-05-19T05:25:48.018Z,73.71
2023-05-19T05:28:14.553Z,73.62
2023-05-19T05:30:41.507Z,74.07
2023-05-19T05:33:08.193Z,73.80
2023-05-19T05:35:34.843Z,74.18
2023-05-19T05:38:02.616Z,74.09
2023-05-19T05:40:29.156Z,74.26
2023-05-19T05:42:56.759Z,74.79
2023-05-19T05:45:23.509Z,74.76
2023-05-19T05:47:50.535Z,74.57
2023-05-19T05:50:17.565Z,74.53
2023-05-19T05:52:48.042Z,74.37
2023-05-19T05:55:15.442Z,74.66
2023-05-19T05:57:41.948Z,75.16
2023-05-19T06:00:18.196Z,75.35
2023-05-19T06:02:53.204Z,75.15
2023-05-19T06:05:19.806Z,75.10
2023-05-19T06:07:46.683Z,75.41
2023-05-19T06:10:13.179Z,75.61
2023-05-19T06:12:43.177Z,75.46
2023-05-19T06:15:10.256Z,75.40
2023-05-19T06:17:36.728Z,75.27
2023-05-19T06:20:05.654Z,75.20
2023-05-19T06:22:32.287Z,74.91
2023-05-19T06:24:58.761Z,74.69
2023-05-19T06:27:25.304Z,75.01
2023-05-19T06:29:51.759Z,74.94
2023-05-19T06:32:18.253Z,74.48
2023-05-19T06:34:44.686Z,74.62
2023-05-19T06:37:11.234Z,74.81
2023-05-19T06:39:38.281Z,74.70
2023-05-19T06:42:04.986Z,74.40
2023-05-19T06:44:31.384Z,74.26
2023-05-19T06:46:57.804Z,73.82
2023-05-19T06:49:24.361Z,73.67
2023-05-19T06:51:50.992Z,74.25
2023-05-19T06:54:17.557Z,73.84
2023-05-19T06:56:44.031Z,73.38
2023-05-19T06:59:10.839Z,72.94
2023-05-19T07:01:37.820Z,73.28
2023-05-19T07:04:04.517Z,73.44
2023-05-19T07:06:31.273Z,72.85
2023-05-19T07:08:57.637Z,72.58
2023-05-19T07:11:24.612Z,72.55
2023-05-19T07:13:51.064Z,71.79
2023-05-19T07:16:17.546Z,72.29
2023-05-19T07:18:44.149Z,71.79
2023-05-19T07:21:10.589Z,71.71
2023-05-19T07:23:37.006Z,71.43
2023-05-19T07:26:03.382Z,71.03
2023-05-19T07:28:29.778Z,70.66
2023-05-19T07:30:56.312Z,69.53
2023-05-19T07:33:23.025Z,68.89
2023-05-19T07:35:49.460Z,68.62
2023-05-19T07:38:15.837Z,68.96
2023-05-19T07:40:42.236Z,69.05
2023-05-19T07:43:08.824Z,67.58
2023-05-19T07:45:35.290Z,67.65
2023-05-19T07:48:01.727Z,66.58
2023-05-19T07:50:28.321Z,66.07
2023-05-19T07:52:54.862Z,66.16
2023-05-19T07:55:23.095Z,65.60
2023-05-19T07:57:50.766Z,65.30
2023-05-19T08:00:17.699Z,64.93
2023-05-19T08:02:45.046Z,64.65
2023-05-19T08:05:11.604Z,64.66
2023-05-19T08:07:38.232Z,63.72
2023-05-19T08:10:04.983Z,63.89
2023-05-19T08:12:31.484Z,63.12
2023-05-19T08:14:59.741Z,63.47
2023-05-19T08:17:27.705Z,62.54
2023-05-19T08:19:54.176Z,62.12
2023-05-19T08:22:20.692Z,59.89
2023-05-19T08:24:49.576Z,60.05
2023-05-19T08:27:16.656Z,59.12
2023-05-19T08:29:43.486Z,59.05
2023-05-19T08:32:12.427Z,57.96
2023-05-19T08:34:39.825Z,57.46
2023-05-19T08:37:06.993Z,55.08
2023-05-19T08:39:34.764Z,57.47
2023-05-19T08:42:02.471Z,57.40
2023-05-19T08:44:30.774Z,55.39
2023-05-19T08:47:02.692Z,54.62
2023-05-19T08:49:33.518Z,55.02
2023-05-19T08:52:28.056Z,54.35
2023-05-19T08:55:04.425Z,52.83
2023-05-19T08:57:32.911Z,52.52
2023-05-19T09:00:00.508Z,53.97
2023-05-19T09:02:27.671Z,53.16
2023-05-19T09:04:55.710Z,52.08
2023-05-19T09:07:25.555Z,52.54
2023-05-19T09:09:52.017Z,49.32
2023-05-19T09:12:18.453Z,50.33
2023-05-19T09:14:45.027Z,52.32
2023-05-19T09:17:11.885Z,49.53
2023-05-19T09:19:43.823Z,51.59
2023-05-19T09:22:10.886Z,51.52
2023-05-19T09:24:38.440Z,51.01
2023-05-19T09:27:05.052Z,51.11
2023-05-19T09:29:31.426Z,51.21
2023-05-19T09:32:04.091Z,49.90
2023-05-19T09:34:31.097Z,48.10
2023-05-19T09:36:59.705Z,49.99
2023-05-19T09:39:26.492Z,50.02
2023-05-19T09:41:54.553Z,48.75
2023-05-19T09:44:23.817Z,48.94
2023-05-19T09:46:51.800Z,47.97
2023-05-19T09:49:32.622Z,48.47
2023-05-19T09:52:02.184Z,49.38
2023-05-19T09:54:31.951Z,48.35
2023-05-19T09:56:59.059Z,49.09
2023-05-19T09:59:26.264Z,49.25
2023-05-19T10:01:57.769Z,48.42
2023-05-19T10:04:28.560Z,46.93
2023-05-19T10:06:59.350Z,47.32
2023-05-19T10:09:27.547Z,48.32
2023-05-19T10:11:59.213Z,49.04
2023-05-19T10:14:27.368Z,48.73
2023-05-19T10:16:58.907Z,48.67
2023-05-19T10:19:28.006Z,47.67
2023-05-19T10:21:55.105Z,49.66
2023-05-19T10:24:21.784Z,48.77
2023-05-19T10:26:54.479Z,49.28
2023-05-19T10:29:27.263Z,48.75
2023-05-19T10:31:58.226Z,48.15
2023-05-19T10:34:50.116Z,48.71
2023-05-19T10:37:37.725Z,48.77
2023-05-19T10:40:13.526Z,46.90
2023-05-19T10:43:17.520Z,48.93
2023-05-19T10:45:49.289Z,48.34
2023-05-19T10:48:16.893Z,47.48
2023-05-19T10:50:45.638Z,45.83
2023-05-19T10:53:22.390Z,46.44
2023-05-19T10:56:04.552Z,46.62
2023-05-19T10:58:43.642Z,46.70
2023-05-19T11:01:14.952Z,46.67
2023-05-19T11:03:49.077Z,46.75
2023-05-19T11:06:28.525Z,46.35
2023-05-19T11:08:58.391Z,46.11
2023-05-19T11:11:24.957Z,46.53
2023-05-19T11:13:55.557Z,45.34
2023-05-19T11:16:29.702Z,46.39
2023-05-19T11:18:59.005Z,43.85
2023-05-19T11:21:41.569Z,43.69
2023-05-19T11:24:09.108Z,44.73
2023-05-19T11:26:43.292Z,44.67
2023-05-19T11:29:10.699Z,44.92
2023-05-19T11:31:39.180Z,41.95
2023-05-19T11:34:07.129Z,43.36
2023-05-19T11:36:34.403Z,42.64
2023-05-19T11:39:02.547Z,41.90
2023-05-19T11:41:30.984Z,42.05
2023-05-19T11:43:57.739Z,43.33
2023-05-19T11:46:24.929Z,42.95
2023-05-19T11:48:51.907Z,42.35
2023-05-19T11:51:21.357Z,42.20
2023-05-19T11:53:49.640Z,41.47
2023-05-19T11:56:16.094Z,41.95
2023-05-19T11:58:42.451Z,41.53
2023-05-19T12:01:10.277Z,39.06
2023-05-19T12:03:36.938Z,39.50
2023-05-19T12:06:05.721Z,38.68
2023-05-19T12:08:32.458Z,38.70
2023-05-19T12:10:59.429Z,39.46
2023-05-19T12:13:26.077Z,41.56
2023-05-19T12:15:53.408Z,39.81
2023-05-19T12:18:20.280Z,40.49
2023-05-19T12:20:47.037Z,39.83
2023-05-19T12:23:14.324Z,41.63
2023-05-19T12:25:40.957Z,40.35
2023-05-19T12:28:07.824Z,41.62
2023-05-19T12:30:35.335Z,42.80
2023-05-19T12:33:04.943Z,41.66
2023-05-19T12:35:35.880Z,42.58
2023-05-19T12:38:06.600Z,44.59
2023-05-19T12:40:34.970Z,44.54
2023-05-19T12:43:01.748Z,44.68
2023-05-19T12:45:28.917Z,44.69
2023-05-19T12:47:56.098Z,44.05
2023-05-19T12:50:31.158Z,44.91
2023-05-19T12:52:59.548Z,46.19
2023-05-19T12:55:26.070Z,43.25
2023-05-19T12:57:54.842Z,43.46
2023-05-19T13:00:25.462Z,42.56
2023-05-19T13:02:56.304Z,43.66
2023-05-19T13:05:23.990Z,44.18
2023-05-19T13:08:01.861Z,41.81
2023-05-19T13:10:29.564Z,43.44
2023-05-19T13:12:57.051Z,42.86
2023-05-19T13:15:26.197Z,42.81
2023-05-19T13:17:53.970Z,42.23
2023-05-19T13:20:21.605Z,42.54
2023-05-19T13:22:48.962Z,43.19
2023-05-19T13:25:16.008Z,42.89
2023-05-19T13:27:44.340Z,42.49
2023-05-19T13:30:11.100Z,42.93
2023-05-19T13:32:37.764Z,42.58
2023-05-19T13:35:04.489Z,42.72
2023-05-19T13:37:30.946Z,42.40
2023-05-19T13:40:01.195Z,43.84
2023-05-19T13:42:28.117Z,42.72
2023-05-19T13:44:56.279Z,45.47
2023-05-19T13:47:26.001Z,44.22
2023-05-19T13:49:52.779Z,43.84
2023-05-19T13:52:21.184Z,43.03
2023-05-19T13:54:48.488Z,43.44
2023-05-19T13:57:15.825Z,44.49
2023-05-19T13:59:57.249Z,44.18
2023-05-19T14:02:28.059Z,43.63
2023-05-19T14:04:55.824Z,42.72
2023-05-19T14:07:22.248Z,43.47
2023-05-19T14:09:50.944Z,41.72
2023-05-19T14:12:17.358Z,43.27
2023-05-19T14:14:43.867Z,43.02
2023-05-19T14:17:10.761Z,41.34
2023-05-19T14:19:37.184Z,42.49
2023-05-19T14:22:03.788Z,41.86
2023-05-19T14:24:30.828Z,39.99
2023-05-19T14:26:57.298Z,42.08
2023-05-19T14:29:23.673Z,41.81
2023-05-19T14:31:50.227Z,40.61
2023-05-19T14:34:20.797Z,40.09
2023-05-19T14:36:48.668Z,41.87
2023-05-19T14:39:15.156Z,41.29
2023-05-19T14:41:41.689Z,40.92
2023-05-19T14:44:08.062Z,39.94
2023-05-19T14:46:34.527Z,41.89
2023-05-19T14:49:01.015Z,42.02
2023-05-19T14:51:27.590Z,42.11
2023-05-19T14:53:54.037Z,41.64
2023-05-19T14:56:21.931Z,42.38
2023-05-19T14:58:48.334Z,40.81
2023-05-19T15:01:14.824Z,41.25
2023-05-19T15:03:41.243Z,41.90
2023-05-19T15:06:11.584Z,42.24
2023-05-19T15:08:39.194Z,42.11
2023-05-19T15:11:05.865Z,41.77
2023-05-19T15:13:32.308Z,43.10
2023-05-19T15:16:12.339Z,42.14
2023-05-19T15:18:42.021Z,41.46
2023-05-19T15:21:08.442Z,41.06
2023-05-19T15:23:34.872Z,40.60
2023-05-19T15:26:01.354Z,40.73
2023-05-19T15:28:27.858Z,41.89
2023-05-19T15:30:54.257Z,40.36
2023-05-19T15:33:20.761Z,40.60
2023-05-19T15:35:51.476Z,40.34
2023-05-19T15:38:21.691Z,40.52
2023-05-19T15:40:48.171Z,41.11
2023-05-19T15:43:14.770Z,41.74
2023-05-19T15:45:41.404Z,40.71
2023-05-19T15:48:08.257Z,40.10
2023-05-19T15:50:35.696Z,39.86
2023-05-19T15:53:02.468Z,40.00
2023-05-19T15:55:29.067Z,39.44
2023-05-19T15:57:55.668Z,41.10
2023-05-19T16:00:22.099Z,40.00
2023-05-19T16:02:48.666Z,40.32
2023-05-19T16:05:15.175Z,40.59
2023-05-19T16:07:42.041Z,39.99
2023-05-19T16:10:09.017Z,40.34
2023-05-19T16:12:36.431Z,40.43
2023-05-19T16:15:03.056Z,39.67
2023-05-19T16:17:29.522Z,40.51
2023-05-19T16:19:55.967Z,40.57
2023-05-19T16:22:24.609Z,40.87
2023-05-19T16:24:51.640Z,41.12
2023-05-19T16:27:18.513Z,40.85
2023-05-19T16:29:44.884Z,40.48
2023-05-19T16:32:11.343Z,40.54
2023-05-19T16:34:37.745Z,40.22
2023-05-19T16:37:04.383Z,40.62
2023-05-19T16:39:30.891Z,39.78
2023-05-19T16:41:57.349Z,39.76
2023-05-19T16:44:24.488Z,39.93
2023-05-19T16:46:50.869Z,40.81
2023-05-19T16:49:17.268Z,40.41
2023-05-19T16:51:43.672Z,41.02
2023-05-19T16:54:10.115Z,41.53
2023-05-19T16:56:36.588Z,41.27
2023-05-19T16:59:03.031Z,41.02
2023-05-19T17:01:31.253Z,41.58
2023-05-19T17:03:57.708Z,41.09
2023-05-19T17:06:24.134Z,41.82
2023-05-19T17:08:50.571Z,39.79
2023-05-19T17:11:17.051Z,40.08
2023-05-19T17:13:43.871Z,39.80
2023-05-19T17:16:10.313Z,40.85
2023-05-19T17:18:37.347Z,40.90
2023-05-19T17:21:05.319Z,40.88
2023-05-19T17:23:32.287Z,40.83
2023-05-19T17:25:58.651Z,41.53
2023-05-19T17:28:25.146Z,41.28
2023-05-19T17:30:51.581Z,42.31
2023-05-19T17:33:17.966Z,40.82
2023-05-19T17:35:44.335Z,40.96
2023-05-19T17:38:10.970Z,40.67
2023-05-19T17:40:37.390Z,40.41
2023-05-19T17:43:04.395Z,39.69
2023-05-19T17:45:30.812Z,39.99
2023-05-19T17:47:57.349Z,39.81
2023-05-19T17:50:23.820Z,39.98
2023-05-19T17:52:50.698Z,40.88
2023-05-19T17:55:18.162Z,41.00
2023-05-19T17:57:46.241Z,41.22
2023-05-19T18:00:13.163Z,41.10
2023-05-19T18:02:40.061Z,41.24
2023-05-19T18:05:07.224Z,40.73
2023-05-19T18:07:39.098Z,41.28
2023-05-19T18:10:06.438Z,41.15
2023-05-19T18:12:32.821Z,40.82
2023-05-19T18:14:59.307Z,40.98
2023-05-19T18:17:25.947Z,41.36
2023-05-19T18:19:52.409Z,41.40
2023-05-19T18:22:18.871Z,41.82
2023-05-19T18:24:45.409Z,41.37
2023-05-19T18:27:12.006Z,41.66
2023-05-19T18:29:38.424Z,41.88
2023-05-19T18:32:05.343Z,41.32
2023-05-19T18:34:31.829Z,42.32
2023-05-19T18:36:58.228Z,42.48
2023-05-19T18:39:25.947Z,41.84
2023-05-19T18:41:53.594Z,42.47
2023-05-19T18:44:19.961Z,42.84
2023-05-19T18:46:46.682Z,42.59
2023-05-19T18:49:13.107Z,42.99
2023-05-19T18:51:39.605Z,42.94
2023-05-19T18:54:07.009Z,43.11
2023-05-19T18:56:33.437Z,43.86
2023-05-19T18:58:59.865Z,43.94
2023-05-19T19:01:26.396Z,43.68
2023-05-19T19:03:52.758Z,43.28
2023-05-19T19:06:20.802Z,43.56
2023-05-19T19:08:47.385Z,43.67
2023-05-19T19:11:13.729Z,44.21
2023-05-19T19:13:40.377Z,43.67
2023-05-19T19:16:06.971Z,43.90
2023-05-19T19:18:35.570Z,44.11
2023-05-19T19:21:05.228Z,44.16
2023-05-19T19:23:32.470Z,44.96
2023-05-19T19:25:58.887Z,44.45
2023-05-19T19:28:25.383Z,44.04
2023-05-19T19:30:51.850Z,44.66
2023-05-19T19:33:18.415Z,44.51
2023-05-19T19:35:46.852Z,44.82
2023-05-19T19:38:13.757Z,44.70
2023-05-19T19:40:40.342Z,44.90
2023-05-19T19:43:06.745Z,44.90
2023-05-19T19:45:34.636Z,45.02
2023-05-19T19:48:01.649Z,44.95
2023-05-19T19:50:28.282Z,45.48
2023-05-19T19:52:54.709Z,45.25
2023-05-19T19:55:21.591Z,45.63
2023-05-19T19:57:49.381Z,45.27
2023-05-19T20:00:16.499Z,45.37
2023-05-19T20:02:55.803Z,45.65
2023-05-19T20:05:29.278Z,45.45
2023-05-19T20:07:55.761Z,45.93
2023-05-19T20:10:22.220Z,46.06
2023-05-19T20:12:50.395Z,46.97
2023-05-19T20:15:16.922Z,47.62
2023-05-19T20:17:43.349Z,48.09
2023-05-19T20:20:11.685Z,47.83
2023-05-19T20:22:39.086Z,47.73
2023-05-19T20:25:06.077Z,48.51
2023-05-19T20:27:32.513Z,49.18
2023-05-19T20:29:58.999Z,50.45
2023-05-19T20:32:25.482Z,51.31
2023-05-19T20:34:51.980Z,52.62
2023-05-19T20:37:18.457Z,53.80
2023-05-19T20:39:44.832Z,54.85
2023-05-19T20:42:11.407Z,55.34
2023-05-19T20:44:37.832Z,56.39
2023-05-19T20:47:04.420Z,56.79
2023-05-19T20:49:30.917Z,57.35
2023-05-19T20:51:57.354Z,57.73
2023-05-19T20:54:23.813Z,57.95
2023-05-19T20:56:51.655Z,58.41
2023-05-19T20:59:18.116Z,58.53
2023-05-19T21:01:46.027Z,59.07
2023-05-19T21:04:12.500Z,59.08
2023-05-19T21:06:38.966Z,59.14
2023-05-19T21:09:06.802Z,59.13
2023-05-19T21:11:34.068Z,59.31
2023-05-19T21:14:03.817Z,59.11
2023-05-19T21:16:30.784Z,59.24
2023-05-19T21:18:57.411Z,59.69
2023-05-19T21:21:23.827Z,59.52
2023-05-19T21:23:50.229Z,59.46
2023-05-19T21:26:16.638Z,59.53
2023-05-19T21:28:43.097Z,59.65
2023-05-19T21:31:09.607Z,59.63
2023-05-19T21:33:36.518Z,59.61
2023-05-19T21:36:03.001Z,59.64
2023-05-19T21:38:29.477Z,59.64
2023-05-19T21:40:56.077Z,59.79
2023-05-19T21:43:22.482Z,59.85
2023-05-19T21:45:48.913Z,59.74
2023-05-19T21:48:15.524Z,59.80
2023-05-19T21:50:41.967Z,59.65
2023-05-19T21:53:08.535Z,59.54
2023-05-19T21:55:35.011Z,59.47
2023-05-19T21:58:02.590Z,59.54
2023-05-19T22:00:29.285Z,59.29
2023-05-19T22:02:55.935Z,59.16
2023-05-19T22:05:22.436Z,58.72
2023-05-19T22:07:48.861Z,58.82
2023-05-19T22:10:15.255Z,58.79
2023-05-19T22:12:41.685Z,58.50
2023-05-19T22:15:08.786Z,58.59
2023-05-19T22:17:35.288Z,58.58
2023-05-19T22:20:01.735Z,58.17
2023-05-19T22:22:28.193Z,58.07
2023-05-19T22:24:54.631Z,58.39
2023-05-19T22:27:21.018Z,58.37
2023-05-19T22:29:47.444Z,58.29
2023-05-19T22:32:16.673Z,58.19
2023-05-19T22:34:43.220Z,58.19
2023-05-19T22:37:09.853Z,58.10
2023-05-19T22:39:36.731Z,58.17
2023-05-19T22:42:03.228Z,58.11
2023-05-19T22:44:29.662Z,58.30
2023-05-19T22:46:56.087Z,58.05
2023-05-19T22:49:22.897Z,58.20
2023-05-19T22:51:49.813Z,58.42
2023-05-19T22:54:16.313Z,58.39
2023-05-19T22:56:48.367Z,58.25
2023-05-19T22:59:17.551Z,58.70
2023-05-19T23:01:46.350Z,58.98
2023-05-19T23:04:13.260Z,58.85
2023-05-19T23:06:39.700Z,58.96
2023-05-19T23:09:06.276Z,59.09
2023-05-19T23:11:32.751Z,59.10
2023-05-19T23:13:59.271Z,59.03
2023-05-19T23:16:25.923Z,58.82
2023-05-19T23:18:52.544Z,59.22
2023-05-19T23:21:18.972Z,59.10
2023-05-19T23:23:45.371Z,59.11
2023-05-19T23:26:13.375Z,59.29
2023-05-19T23:28:42.034Z,59.23
2023-05-19T23:31:09.163Z,59.48
2023-05-19T23:33:35.682Z,59.48
2023-05-19T23:36:07.036Z,59.50
2023-05-19T23:38:34.089Z,59.49
2023-05-19T23:41:00.558Z,59.63
2023-05-19T23:43:26.986Z,59.74
2023-05-19T23:45:53.451Z,59.75
2023-05-19T23:48:20.056Z,59.57
2023-05-19T23:50:46.629Z,59.72
2023-05-19T23:53:13.085Z,59.63
2023-05-19T23:55:39.489Z,59.71
2023-05-19T23:58:06.032Z,59.95
